createdAt,value
2023-03-23T05:30:04.026Z,43.0166
2023-03-23T15:04:09.765Z,37.3258
2023-03-23T15:05:01.900Z,36.8369
2023-03-23T15:09:00.166Z,37.3785
2023-03-23T15:09:52.510Z,36.5926
2023-03-23T15:10:53.612Z,36.8130
2023-03-23T15:11:54.707Z,36.4069
2023-03-23T15:12:55.886Z,36.2477
2023-03-23T15:13:56.940Z,36.0072
2023-03-23T15:14:58.227Z,35.9427
2023-03-23T15:15:59.174Z,36.3447
2023-03-23T15:17:00.302Z,36.6091
2023-03-23T15:18:01.399Z,36.4840
2023-03-23T15:19:02.530Z,36.3719
2023-03-23T15:20:03.651Z,36.2498
2023-03-23T15:21:04.753Z,35.8463
2023-03-23T15:22:05.846Z,36.2812
2023-03-23T15:23:06.974Z,36.6422
2023-03-23T15:24:08.063Z,36.2819
2023-03-23T15:25:09.225Z,35.7435
2023-03-23T15:26:10.289Z,35.3070
2023-03-23T15:28:22.461Z,35.7182
2023-03-23T15:29:14.786Z,35.7072
2023-03-23T15:30:16.980Z,35.6666
2023-03-23T15:31:17.017Z,35.6874
2023-03-23T15:32:18.158Z,35.3999
2023-03-23T15:33:19.244Z,35.2825
2023-03-23T15:34:21.393Z,35.2748
2023-03-23T15:35:21.534Z,35.4502
2023-03-23T15:36:22.643Z,35.2526
2023-03-23T15:37:23.728Z,35.3324
2023-03-23T15:38:24.825Z,35.5655
2023-03-23T15:39:25.927Z,35.5877
2023-03-23T15:40:27.103Z,35.7187
2023-03-23T15:41:28.165Z,35.7819
2023-03-23T15:42:30.119Z,35.5213
2023-03-23T15:43:30.392Z,35.6150
2023-03-23T15:44:31.520Z,35.4711
2023-03-23T15:45:32.661Z,35.6535
2023-03-23T15:46:33.746Z,35.7144
2023-03-23T15:47:34.840Z,35.6944
2023-03-23T15:48:35.967Z,35.4358
2023-03-23T15:49:37.080Z,35.2990
2023-03-23T15:50:38.260Z,34.9802
2023-03-23T15:51:39.301Z,35.1784
2023-03-23T15:52:40.436Z,35.6692
2023-03-23T15:53:41.533Z,35.7157
2023-03-23T15:54:42.664Z,35.9796
2023-03-23T15:55:43.915Z,36.0096
2023-03-23T15:56:44.903Z,35.8910
2023-03-23T15:58:47.159Z,35.6384
2023-03-23T15:58:47.159Z,35.4880
2023-03-23T15:59:48.258Z,35.5407
2023-03-23T16:00:49.421Z,35.7456
2023-03-23T16:01:50.490Z,35.9830
2023-03-23T16:02:51.657Z,36.0809
2023-03-23T16:03:52.714Z,35.6762
2023-03-23T16:04:53.833Z,35.6539
2023-03-23T16:05:54.984Z,35.8350
2023-03-23T16:06:56.080Z,35.9381
2023-03-23T16:07:57.181Z,35.8410
2023-03-23T16:08:58.271Z,35.8582
2023-03-23T16:09:59.408Z,35.9051
2023-03-23T16:11:00.571Z,35.8201
2023-03-23T16:12:01.632Z,35.6314
2023-03-23T16:13:02.730Z,35.4810
2023-03-23T16:14:03.864Z,35.2440
2023-03-23T16:15:04.956Z,35.2875
2023-03-23T16:16:06.132Z,35.1618
2023-03-23T16:17:07.241Z,35.1247
2023-03-23T16:18:08.327Z,35.0230
2023-03-23T16:19:09.375Z,34.9445
2023-03-23T16:20:10.493Z,35.1709
2023-03-23T16:21:11.671Z,35.5648
2023-03-23T16:22:12.700Z,35.4648
2023-03-23T16:23:13.790Z,35.5266
2023-03-23T16:24:14.914Z,35.3612
2023-03-23T16:25:16.010Z,35.5950
2023-03-23T16:26:17.165Z,35.4300
2023-03-23T16:27:18.201Z,35.5400
2023-03-23T16:28:19.314Z,35.5995
2023-03-23T16:29:33.745Z,35.6262
2023-03-23T16:30:22.565Z,35.3053
2023-03-23T16:31:22.691Z,35.4412
2023-03-23T16:32:23.740Z,35.2780
2023-03-23T16:33:24.852Z,35.2413
2023-03-23T16:34:25.946Z,35.2192
2023-03-23T16:35:27.161Z,35.2121
2023-03-23T16:36:28.248Z,35.3221
2023-03-23T16:37:29.246Z,35.1342
2023-03-23T16:38:30.366Z,35.2689
2023-03-23T16:39:31.453Z,35.1388
2023-03-23T16:40:32.575Z,35.2689
2023-03-23T16:41:33.753Z,35.2948
2023-03-23T16:42:34.795Z,35.3358
2023-03-23T16:43:35.870Z,35.0284
2023-03-23T16:44:36.989Z,35.0135
2023-03-23T16:45:38.230Z,35.0516
2023-03-23T16:46:39.265Z,34.9918
2023-03-23T16:47:40.331Z,34.9708
2023-03-23T16:48:41.419Z,34.9559
2023-03-23T16:49:42.494Z,34.9032
2023-03-23T16:50:43.624Z,34.9740
2023-03-23T16:51:44.749Z,35.2121
2023-03-23T16:52:46.292Z,35.2357
2023-03-23T16:53:46.922Z,35.1756
2023-03-23T16:54:48.033Z,35.1024
2023-03-23T16:55:49.120Z,34.9974
2023-03-23T16:56:50.316Z,34.9648
2023-03-23T16:57:51.547Z,35.0145
2023-03-23T16:58:52.447Z,35.0091
2023-03-23T16:59:53.533Z,34.9316
2023-03-23T17:00:54.660Z,35.0435
2023-03-23T17:01:55.830Z,35.0107
2023-03-23T17:02:56.949Z,35.0958
2023-03-23T17:03:58.033Z,35.3789
2023-03-23T17:04:59.089Z,35.5436
2023-03-23T17:06:00.162Z,35.3709
2023-03-23T17:07:01.342Z,35.1949
2023-03-23T17:08:02.379Z,35.2046
2023-03-23T17:09:03.501Z,35.1841
2023-03-23T17:10:04.595Z,35.3099
2023-03-23T17:11:05.712Z,35.3283
2023-03-23T17:12:06.864Z,35.2159
2023-03-23T17:13:07.913Z,35.3221
2023-03-23T17:14:09.004Z,35.3381
2023-03-23T17:15:10.129Z,35.3717
2023-03-23T17:16:11.260Z,35.3665
2023-03-23T17:17:12.385Z,35.3233
2023-03-23T17:18:13.434Z,35.4198
2023-03-23T17:19:14.552Z,35.4732
2023-03-23T17:20:15.659Z,35.5510
2023-03-23T17:21:16.755Z,35.3722
2023-03-23T17:22:18.000Z,35.3500
2023-03-23T17:23:18.976Z,35.2156
2023-03-23T17:24:20.083Z,35.1763
2023-03-23T17:25:21.188Z,35.1051
2023-03-23T17:26:22.269Z,35.1832
2023-03-23T17:27:23.425Z,35.1379
2023-03-23T17:28:24.538Z,35.0952
2023-03-23T17:29:25.620Z,35.1100
2023-03-23T17:30:26.691Z,35.1210
2023-03-23T17:31:27.861Z,35.0485
2023-03-23T17:32:29.061Z,35.0662
2023-03-23T17:33:30.019Z,35.0647
2023-03-23T17:34:31.216Z,35.0773
2023-03-23T17:35:32.229Z,35.0389
2023-03-23T17:36:33.343Z,35.1000
2023-03-23T17:37:34.627Z,35.0440
2023-03-23T17:38:35.525Z,35.0155
2023-03-23T17:39:42.708Z,35.0523
2023-03-23T17:40:38.746Z,35.0285
2023-03-23T17:41:38.853Z,35.0427
2023-03-23T17:42:39.994Z,35.1808
2023-03-23T17:43:41.089Z,35.0499
2023-03-23T17:44:42.149Z,35.0424
2023-03-23T17:45:46.547Z,35.0595
2023-03-23T17:46:44.412Z,35.6864
2023-03-23T17:47:45.539Z,35.3412
2023-03-23T17:48:46.570Z,35.1758
2023-03-23T17:49:47.694Z,35.1726
2023-03-23T17:50:48.796Z,35.6908
2023-03-23T17:51:49.938Z,35.6080
2023-03-23T17:52:51.073Z,35.5358
2023-03-23T17:53:52.131Z,35.5299
2023-03-23T17:54:53.215Z,35.4194
2023-03-23T17:55:54.336Z,35.3774
2023-03-23T17:56:55.457Z,35.5260
2023-03-23T17:57:56.595Z,35.4902
2023-03-23T17:58:57.640Z,35.4725
2023-03-23T17:59:58.776Z,35.4587
2023-03-23T18:00:59.881Z,35.4382
2023-03-23T18:02:01.025Z,35.4127
2023-03-23T18:03:02.132Z,35.3741
2023-03-23T18:04:03.193Z,35.3294
2023-03-23T18:05:04.270Z,35.2499
2023-03-23T18:06:05.401Z,35.2176
2023-03-23T18:07:06.484Z,35.1499
2023-03-23T18:08:07.621Z,35.1864
2023-03-23T18:09:08.681Z,35.1786
2023-03-23T18:10:09.788Z,35.2770
2023-03-23T18:11:10.876Z,35.2794
2023-03-23T18:12:11.991Z,35.2580
2023-03-23T18:13:13.121Z,35.2658
2023-03-23T18:14:14.192Z,35.3442
2023-03-23T18:15:15.307Z,35.8920
2023-03-23T18:16:16.406Z,35.7517
2023-03-23T18:17:17.477Z,35.8441
2023-03-23T18:18:18.646Z,35.9550
2023-03-23T18:19:19.677Z,35.8148
2023-03-23T18:20:20.878Z,35.8103
2023-03-23T18:21:21.882Z,35.9072
2023-03-23T18:22:23.002Z,35.9271
2023-03-23T18:23:24.428Z,35.9583
2023-03-23T18:24:25.193Z,35.8247
2023-03-23T18:25:26.279Z,35.8996
2023-03-23T18:26:27.401Z,35.9909
2023-03-23T18:37:11.795Z,39.8779
2023-03-23T18:38:04.884Z,38.6723
2023-03-23T18:39:05.996Z,38.2155
2023-03-23T18:40:07.107Z,37.8335
2023-03-23T18:42:25.578Z,37.9677
2023-03-23T18:43:17.866Z,37.2562
2023-03-23T18:44:19.005Z,37.0401
2023-03-23T18:45:20.085Z,36.9841
2023-03-23T18:46:21.245Z,37.0089
2023-03-23T18:47:22.358Z,37.0973
2023-03-23T18:49:15.075Z,37.4003
2023-03-23T18:51:33.343Z,36.8137
2023-03-23T18:52:24.980Z,37.0499
2023-03-23T18:53:26.084Z,37.3384
2023-03-23T18:54:27.275Z,37.5816
2023-03-23T18:55:28.301Z,37.6319
2023-03-23T18:56:29.458Z,38.0622
2023-03-23T18:57:30.531Z,38.2636
2023-03-23T19:01:41.645Z,39.8323
2023-03-23T19:04:06.901Z,38.1460
2023-03-23T19:04:56.403Z,37.9227
2023-03-23T19:05:57.502Z,37.8593
2023-03-23T19:06:58.980Z,37.9500
2023-03-23T19:07:59.723Z,37.2812
2023-03-23T19:09:00.877Z,37.0040
2023-03-23T19:10:01.949Z,36.9637
2023-03-23T19:11:03.091Z,36.9834
2023-03-23T19:13:35.678Z,37.3217
2023-03-23T19:14:27.605Z,37.1577
2023-03-23T19:15:28.747Z,37.1183
2023-03-23T19:17:16.534Z,37.1954
2023-03-23T19:19:20.767Z,37.1998
2023-03-23T19:26:51.817Z,37.6460
2023-03-23T19:28:18.178Z,36.9848
2023-03-23T19:29:23.335Z,37.6411
2023-03-23T19:29:47.134Z,37.8802
2023-03-23T19:30:47.308Z,38.3289
2023-03-23T19:31:48.403Z,38.4824
2023-03-23T19:32:49.551Z,39.5399
2023-03-23T19:33:50.609Z,39.7869
2023-03-23T19:34:51.746Z,40.3312
2023-03-23T19:36:05.667Z,39.8880
2023-03-23T19:37:03.309Z,40.0353
2023-03-23T19:37:56.154Z,41.1861
2023-03-23T19:38:56.190Z,40.5717
2023-03-23T19:39:58.185Z,40.1115
2023-03-23T19:40:58.538Z,39.4487
2023-03-23T19:41:59.503Z,41.3339
2023-03-23T19:43:00.683Z,38.7253
2023-03-23T19:45:22.332Z,38.4070
2023-03-23T19:46:14.133Z,38.2974
2023-03-23T19:47:15.100Z,38.2032
2023-03-23T19:48:16.386Z,38.0615
2023-03-23T19:49:17.322Z,37.7933
2023-03-23T19:50:18.360Z,37.7959
2023-03-23T19:51:19.509Z,37.3001
2023-03-23T19:52:20.588Z,37.2040
2023-03-23T19:53:21.853Z,37.0812
2023-03-23T19:54:22.825Z,37.1678
2023-03-23T19:55:23.963Z,37.1148
2023-03-23T20:06:07.820Z,40.4605
2023-03-23T20:07:00.825Z,39.4184
2023-03-23T20:09:07.114Z,38.7167
2023-03-23T20:09:58.133Z,39.8979
2023-03-23T20:10:59.234Z,38.2939
2023-03-23T20:12:01.227Z,37.9925
2023-03-23T20:13:01.479Z,37.7723
2023-03-23T20:14:02.560Z,37.8265
2023-03-23T20:15:04.093Z,37.6643
2023-03-23T20:17:18.821Z,37.3750
2023-03-23T20:45:57.014Z,40.0553
2023-03-23T20:46:48.500Z,38.7549
2023-03-23T20:47:49.636Z,37.1073
2023-03-23T20:48:50.755Z,36.3692
2023-03-23T20:50:57.357Z,36.5956
2023-03-23T20:51:46.916Z,36.2578
2023-03-23T20:52:48.032Z,38.9334
2023-03-23T20:53:49.122Z,36.1356
2023-03-23T20:54:50.259Z,36.1924
2023-03-23T20:55:51.355Z,35.9086
2023-03-23T20:56:53.750Z,35.9044
2023-03-23T20:57:53.577Z,35.9464
2023-03-23T20:58:54.715Z,35.9379
2023-03-23T20:59:55.837Z,35.9373
2023-03-23T21:00:56.954Z,36.7334
2023-03-23T21:01:58.075Z,36.1563
2023-03-23T21:02:59.231Z,36.0425
2023-03-23T21:04:00.276Z,35.4715
2023-03-23T21:05:01.397Z,35.4574
2023-03-23T21:06:02.493Z,35.3958
2023-03-23T21:07:03.663Z,35.5171
2023-03-23T21:08:04.732Z,35.3438
2023-03-23T21:09:05.847Z,35.4928
2023-03-23T21:10:06.938Z,35.9918
2023-03-23T21:11:08.077Z,36.4306
2023-03-23T21:12:09.214Z,36.4482
2023-03-23T21:13:10.318Z,36.3563
2023-03-23T21:14:11.421Z,37.5616
2023-03-23T21:15:12.537Z,38.4138
2023-03-23T21:16:13.637Z,38.8715
2023-03-23T21:17:14.810Z,38.8631
2023-03-23T21:18:15.858Z,38.8970
2023-03-23T21:19:16.996Z,38.9758
2023-03-23T21:20:18.096Z,38.7973
2023-03-23T21:21:19.218Z,38.5378
2023-03-23T21:22:20.409Z,38.3835
2023-03-23T21:23:21.437Z,38.4932
2023-03-23T21:24:22.530Z,38.6729
2023-03-23T21:25:33.812Z,38.8383
2023-03-23T21:26:25.746Z,39.3220
2023-03-23T21:27:25.918Z,39.6524
2023-03-23T21:28:26.972Z,40.1605
2023-03-23T21:29:28.523Z,40.5219
2023-03-23T21:30:29.190Z,41.0028
2023-03-23T21:31:30.288Z,41.6014
2023-03-23T21:32:31.483Z,42.0828
2023-03-23T21:33:32.501Z,42.2992
2023-03-23T21:34:33.591Z,41.8263
2023-03-23T21:35:34.725Z,41.3334
2023-03-23T21:36:35.808Z,41.0078
2023-03-23T21:37:37.001Z,40.9038
2023-03-23T21:38:38.023Z,40.8939
2023-03-23T21:39:39.188Z,41.2533
2023-03-23T21:40:40.238Z,41.5309
2023-03-23T21:41:41.926Z,40.9612
2023-03-23T21:42:42.518Z,41.0605
2023-03-23T21:43:43.573Z,40.5728
2023-03-23T21:44:44.676Z,40.2944
2023-03-23T21:45:45.794Z,39.7584
2023-03-23T21:46:46.882Z,39.1146
2023-03-23T21:47:48.066Z,38.8268
2023-03-23T21:48:49.087Z,38.6590
2023-03-23T21:49:50.210Z,38.4598
2023-03-23T21:50:51.319Z,38.5364
2023-03-23T21:51:52.445Z,38.3524
2023-03-23T21:52:53.570Z,38.4889
2023-03-23T21:53:54.654Z,38.4320
2023-03-23T21:54:55.733Z,38.0027
2023-03-23T21:55:56.863Z,37.8936
2023-03-23T21:56:57.985Z,37.7980
2023-03-23T21:57:59.125Z,37.8517
2023-03-23T21:59:00.161Z,37.8411
2023-03-23T22:00:01.289Z,37.7614
2023-03-23T22:01:02.551Z,37.7681
2023-03-23T22:02:03.522Z,37.8294
2023-03-23T22:03:04.977Z,37.8034
2023-03-23T22:04:05.729Z,37.8758
2023-03-23T22:05:06.825Z,37.7655
2023-03-23T22:06:07.962Z,37.8420
2023-03-23T22:07:09.039Z,37.9223
2023-03-23T22:08:10.215Z,37.8709
2023-03-23T22:09:11.262Z,37.8071
2023-03-23T22:10:12.373Z,37.7534
2023-03-23T22:11:13.455Z,37.7321
2023-03-23T22:12:14.591Z,37.7666
2023-03-23T22:13:15.733Z,37.7478
2023-03-23T22:14:16.802Z,37.7083
2023-03-23T22:15:17.885Z,37.7205
2023-03-23T22:16:19.042Z,37.7619
2023-03-23T22:17:20.106Z,37.7285
2023-03-23T22:18:21.325Z,37.7791
2023-03-23T22:19:22.317Z,37.8215
2023-03-23T22:20:23.443Z,37.8603
2023-03-23T22:21:24.538Z,37.8348
2023-03-23T22:22:25.654Z,37.8086
2023-03-23T22:23:26.803Z,37.7849
2023-03-23T22:24:27.870Z,37.8456
2023-03-23T22:25:28.974Z,37.8459
2023-03-23T22:26:30.119Z,37.8344
2023-03-23T22:27:31.175Z,37.8972
2023-03-23T22:28:32.341Z,37.9561
2023-03-23T22:29:33.398Z,37.9737
2023-03-23T22:30:34.513Z,37.9123
2023-03-23T22:31:35.667Z,37.9449
2023-03-23T22:32:36.795Z,37.9085
2023-03-23T22:33:37.868Z,37.8741
2023-03-23T22:34:38.932Z,37.9170
2023-03-23T22:35:40.130Z,37.9363
2023-03-23T22:36:41.158Z,37.9127
2023-03-23T22:37:42.248Z,37.9149
2023-03-23T22:38:43.488Z,37.9868
2023-03-23T22:39:44.471Z,37.9159
2023-03-23T22:40:45.753Z,37.9956
2023-03-23T22:41:46.681Z,37.8850
2023-03-23T22:42:47.798Z,37.8895
2023-03-23T22:43:48.927Z,38.0777
2023-03-23T22:44:50.075Z,38.1092
2023-03-23T22:45:51.132Z,37.9828
2023-03-23T22:46:52.225Z,37.9690
2023-03-23T22:47:53.357Z,38.0332
2023-03-23T22:48:54.542Z,38.0156
2023-03-23T22:49:55.534Z,38.0810
2023-03-23T22:50:56.655Z,38.0843
2023-03-23T22:51:57.757Z,38.0566
2023-03-23T22:52:58.869Z,38.1373
2023-03-23T22:54:00.002Z,38.0375
2023-03-23T22:55:01.093Z,38.1311
2023-03-23T22:56:02.177Z,38.0464
2023-03-23T22:57:03.368Z,38.0308
2023-03-23T22:58:04.397Z,38.1437
2023-03-23T22:59:05.582Z,38.2010
2023-03-23T23:00:06.601Z,38.1640
2023-03-23T23:01:07.821Z,38.1700
2023-03-23T23:02:08.815Z,38.2925
2023-03-23T23:03:09.938Z,38.3176
2023-03-23T23:04:11.140Z,38.2955
2023-03-23T23:05:12.165Z,38.2546
2023-03-23T23:06:13.259Z,38.2922
2023-03-23T23:07:14.395Z,38.2882
2023-03-23T23:08:17.766Z,38.3679
2023-03-23T23:09:16.634Z,38.4058
2023-03-23T23:10:17.669Z,38.3879
2023-03-23T23:11:18.822Z,38.2381
2023-03-23T23:12:19.900Z,38.0734
2023-03-23T23:13:21.018Z,38.1937
2023-03-23T23:14:22.301Z,38.1558
2023-03-23T23:15:23.237Z,38.1863
2023-03-23T23:16:24.410Z,38.2548
2023-03-23T23:17:25.495Z,38.3178
2023-03-23T23:18:26.560Z,38.2551
2023-03-23T23:19:27.850Z,38.2016
2023-03-23T23:20:28.770Z,38.2344
2023-03-23T23:21:29.899Z,38.1851
2023-03-23T23:22:30.992Z,38.3683
2023-03-23T23:23:32.121Z,38.3374
2023-03-23T23:24:33.241Z,38.3422
2023-03-23T23:25:34.334Z,38.2344
2023-03-23T23:26:35.431Z,38.2268
2023-03-23T23:27:36.550Z,38.2428
2023-03-23T23:28:37.640Z,38.2442
2023-03-23T23:29:38.800Z,38.2678
2023-03-23T23:30:39.882Z,38.3327
2023-03-23T23:31:40.991Z,38.4402
2023-03-23T23:32:42.122Z,38.3848
2023-03-23T23:33:43.207Z,38.4776
2023-03-23T23:34:44.369Z,38.3857
2023-03-23T23:35:45.477Z,38.3017
2023-03-23T23:36:46.522Z,38.4592
2023-03-23T23:37:47.648Z,38.4823
2023-03-23T23:38:48.737Z,38.6096
2023-03-23T23:39:49.895Z,38.5820
2023-03-23T23:40:50.953Z,38.5795
2023-03-23T23:41:52.094Z,38.5977
2023-03-23T23:42:53.166Z,38.5269
2023-03-23T23:43:54.290Z,38.5484
2023-03-23T23:44:55.402Z,38.5835
2023-03-23T23:45:56.526Z,38.5975
2023-03-23T23:46:57.618Z,38.6550
2023-03-23T23:47:58.756Z,38.5884
2023-03-23T23:48:59.838Z,38.4709
2023-03-23T23:50:00.971Z,38.5804
2023-03-23T23:51:02.038Z,38.5980
2023-03-23T23:52:03.156Z,38.6301
2023-03-23T23:53:04.251Z,38.6337
2023-03-23T23:54:05.377Z,38.6343
2023-03-23T23:55:06.481Z,38.6421
2023-03-23T23:56:07.576Z,38.6716
2023-03-23T23:57:08.712Z,38.6702
2023-03-23T23:58:09.799Z,38.5273
2023-03-23T23:59:10.893Z,38.5725
